createdAt,value
2023-08-15T00:00:40.854Z,8.70
2023-08-15T00:03:08.342Z,10.10
2023-08-15T00:05:37.554Z,8.40
2023-08-15T00:08:04.969Z,9.00
2023-08-15T00:10:32.344Z,10.50
2023-08-15T00:12:59.628Z,10.30
2023-08-15T00:15:27.256Z,9.90
2023-08-15T00:17:54.714Z,9.70
2023-08-15T00:20:22.183Z,9.60
2023-08-15T00:22:49.424Z,9.00
2023-08-15T00:25:16.910Z,8.40
2023-08-15T00:27:44.170Z,8.70
2023-08-15T00:30:11.811Z,9.20
2023-08-15T00:32:39.106Z,9.20
2023-08-15T00:35:06.883Z,9.90
2023-08-15T00:37:35.110Z,9.60
2023-08-15T00:40:02.949Z,9.20
2023-08-15T00:42:30.619Z,10.20
2023-08-15T00:44:58.690Z,9.40
2023-08-15T00:47:26.021Z,10.20
2023-08-15T00:49:53.484Z,8.80
2023-08-15T00:52:20.799Z,9.20
2023-08-15T00:54:48.626Z,9.10
2023-08-15T00:57:16.155Z,9.50
2023-08-15T00:59:44.200Z,9.60
2023-08-15T01:02:11.890Z,9.80
2023-08-15T01:04:40.177Z,9.10
2023-08-15T01:07:10.121Z,9.90
2023-08-15T01:09:38.207Z,9.50
2023-08-15T01:12:29.807Z,9.50
2023-08-15T01:15:01.566Z,8.60
2023-08-15T01:17:50.026Z,9.50
2023-08-15T01:20:19.534Z,10.00
2023-08-15T01:22:48.321Z,10.10
2023-08-15T01:25:15.956Z,10.70
2023-08-15T01:27:45.301Z,10.10
2023-08-15T01:30:13.418Z,10.60
2023-08-15T01:32:49.597Z,9.20
2023-08-15T01:35:20.757Z,9.40
2023-08-15T01:37:52.142Z,9.00
2023-08-15T01:40:19.472Z,10.30
2023-08-15T01:42:46.845Z,9.60
2023-08-15T01:45:14.133Z,10.40
2023-08-15T01:47:41.415Z,10.50
2023-08-15T01:50:09.042Z,9.90
2023-08-15T01:52:37.018Z,9.70
2023-08-15T01:55:04.675Z,10.00
2023-08-15T01:57:31.933Z,9.20
2023-08-15T01:59:59.863Z,9.30
2023-08-15T02:02:27.144Z,9.30
2023-08-15T02:04:54.462Z,9.60
2023-08-15T02:07:21.984Z,9.20
2023-08-15T02:09:49.549Z,9.80
2023-08-15T02:12:17.216Z,9.80
2023-08-15T02:14:44.824Z,11.10
2023-08-15T02:17:12.800Z,10.20
2023-08-15T02:19:40.205Z,9.90
2023-08-15T02:22:07.475Z,9.80
2023-08-15T02:24:34.731Z,9.80
2023-08-15T02:27:02.000Z,9.20
2023-08-15T02:29:29.260Z,9.20
2023-08-15T02:31:56.545Z,10.90
2023-08-15T02:34:26.102Z,9.70
2023-08-15T02:36:53.487Z,9.50
2023-08-15T02:39:21.106Z,9.70
2023-08-15T02:41:48.463Z,8.80
2023-08-15T02:44:15.719Z,9.40
2023-08-15T02:46:43.052Z,10.00
2023-08-15T02:49:10.330Z,9.80
2023-08-15T02:51:37.688Z,8.80
2023-08-15T02:54:05.226Z,9.60
2023-08-15T02:56:32.585Z,9.40
2023-08-15T02:58:59.941Z,9.70
2023-08-15T03:01:27.477Z,8.60
2023-08-15T03:03:54.769Z,10.10
2023-08-15T03:06:22.132Z,9.60
2023-08-15T03:08:49.560Z,9.30
2023-08-15T03:11:16.951Z,9.90
2023-08-15T03:13:44.225Z,8.50
2023-08-15T03:16:12.064Z,8.70
2023-08-15T03:18:39.941Z,9.30
2023-08-15T03:21:09.342Z,9.70
2023-08-15T03:23:38.451Z,9.80
2023-08-15T03:26:06.040Z,10.50
2023-08-15T03:28:36.028Z,10.20
2023-08-15T03:31:07.994Z,9.40
2023-08-15T03:33:38.616Z,9.80
2023-08-15T03:36:06.883Z,9.20
2023-08-15T03:38:34.666Z,11.10
2023-08-15T03:41:06.153Z,9.60
2023-08-15T03:43:34.970Z,10.30
2023-08-15T03:46:03.701Z,11.00
2023-08-15T03:48:31.347Z,11.40
2023-08-15T03:51:00.110Z,11.90
2023-08-15T03:53:27.557Z,13.30
2023-08-15T03:55:55.616Z,27.60
2023-08-15T03:58:23.321Z,17.70
2023-08-15T04:00:50.804Z,14.40
2023-08-15T04:03:18.215Z,12.30
2023-08-15T04:05:48.786Z,11.80
2023-08-15T04:08:16.700Z,11.10
2023-08-15T04:10:47.436Z,11.70
2023-08-15T04:13:15.057Z,12.50
2023-08-15T04:15:44.636Z,12.90
2023-08-15T04:18:12.939Z,13.70
2023-08-15T04:20:41.002Z,12.00
2023-08-15T04:23:08.833Z,13.70
2023-08-15T04:25:38.113Z,11.10
2023-08-15T04:28:06.481Z,10.50
2023-08-15T04:30:34.860Z,11.40
2023-08-15T04:33:02.543Z,10.70
2023-08-15T04:35:30.194Z,10.40
2023-08-15T04:37:57.706Z,14.90
2023-08-15T04:40:35.593Z,11.90
2023-08-15T04:43:03.646Z,20.80
2023-08-15T04:45:31.597Z,42.90
2023-08-15T04:47:58.982Z,15.80
2023-08-15T04:50:26.348Z,13.10
2023-08-15T04:52:53.629Z,30.60
2023-08-15T04:55:23.579Z,16.90
2023-08-15T04:57:50.920Z,37.80
2023-08-15T05:00:20.413Z,15.50
2023-08-15T05:02:49.337Z,12.20
2023-08-15T05:05:17.809Z,12.00
2023-08-15T05:07:45.770Z,11.90
2023-08-15T05:10:13.803Z,12.40
2023-08-15T05:12:43.603Z,12.10
2023-08-15T05:15:11.356Z,13.40
2023-08-15T05:17:39.024Z,12.90
2023-08-15T05:20:08.922Z,10.20
2023-08-15T05:22:36.391Z,16.60
2023-08-15T05:25:04.022Z,13.70
2023-08-15T05:27:33.669Z,13.00
2023-08-15T05:30:00.956Z,11.00
2023-08-15T05:32:28.309Z,16.60
2023-08-15T05:34:57.349Z,17.70
2023-08-15T05:37:24.616Z,11.90
2023-08-15T05:39:51.901Z,11.30
2023-08-15T05:42:19.348Z,21.60
2023-08-15T05:44:47.218Z,17.80
2023-08-15T05:47:14.692Z,11.20
2023-08-15T05:49:42.491Z,10.40
2023-08-15T05:52:10.035Z,10.20
2023-08-15T05:54:37.271Z,9.50
2023-08-15T05:57:05.211Z,9.30
2023-08-15T05:59:32.545Z,11.90
2023-08-15T06:02:00.512Z,13.70
2023-08-15T06:04:28.025Z,10.80
2023-08-15T06:06:55.330Z,9.80
2023-08-15T06:09:22.620Z,8.00
2023-08-15T06:11:51.386Z,10.60
2023-08-15T06:14:20.472Z,9.50
2023-08-15T06:16:48.643Z,8.80
2023-08-15T06:19:16.269Z,8.80
2023-08-15T06:21:43.695Z,9.80
2023-08-15T06:24:11.786Z,8.10
2023-08-15T06:26:39.277Z,12.30
2023-08-15T06:29:07.012Z,8.10
2023-08-15T06:31:34.674Z,5.90
2023-08-15T06:34:05.164Z,7.10
2023-08-15T06:36:32.789Z,7.10
2023-08-15T06:39:00.156Z,6.20
2023-08-15T06:41:27.951Z,5.70
2023-08-15T06:43:55.860Z,6.30
2023-08-15T06:46:23.342Z,6.30
2023-08-15T06:48:50.801Z,5.60
2023-08-15T06:51:18.356Z,4.70
2023-08-15T06:53:45.984Z,5.50
2023-08-15T06:56:13.830Z,6.20
2023-08-15T06:58:41.244Z,5.70
2023-08-15T07:01:08.634Z,31.60
2023-08-15T07:03:36.018Z,6.50
2023-08-15T07:06:05.234Z,5.40
2023-08-15T07:08:32.861Z,5.70
2023-08-15T07:11:00.382Z,5.40
2023-08-15T07:13:27.777Z,4.70
2023-08-15T07:15:59.017Z,19.30
2023-08-15T07:18:26.628Z,8.30
2023-08-15T07:20:54.416Z,5.70
2023-08-15T07:23:21.834Z,10.90
2023-08-15T07:25:49.245Z,10.10
2023-08-15T07:28:16.587Z,6.20
2023-08-15T07:30:46.433Z,6.80
2023-08-15T07:33:15.169Z,5.20
2023-08-15T07:35:43.506Z,4.60
2023-08-15T07:38:10.842Z,4.80
2023-08-15T07:40:38.127Z,4.30
2023-08-15T07:43:05.533Z,5.00
2023-08-15T07:45:32.890Z,4.70
2023-08-15T07:48:00.236Z,5.50
2023-08-15T07:50:28.991Z,3.90
2023-08-15T07:52:59.196Z,4.20
2023-08-15T07:55:29.674Z,4.70
2023-08-15T07:57:59.274Z,4.60
2023-08-15T08:00:26.706Z,4.90
2023-08-15T08:02:54.091Z,4.20
2023-08-15T08:05:23.391Z,4.10
2023-08-15T08:07:51.520Z,4.10
2023-08-15T08:10:19.482Z,3.50
2023-08-15T08:12:47.344Z,3.60
2023-08-15T08:15:15.225Z,3.60
2023-08-15T08:17:43.096Z,3.40
2023-08-15T08:20:13.592Z,3.60
2023-08-15T08:22:41.275Z,3.80
2023-08-15T08:25:19.371Z,4.60
2023-08-15T08:27:47.017Z,3.60
2023-08-15T08:30:17.314Z,3.60
2023-08-15T08:32:44.895Z,4.10
2023-08-15T08:35:12.762Z,3.80
2023-08-15T08:37:40.137Z,3.70
2023-08-15T08:40:08.441Z,3.60
2023-08-15T08:42:35.991Z,3.30
2023-08-15T08:45:03.783Z,4.10
2023-08-15T08:47:32.009Z,4.10
2023-08-15T08:49:59.354Z,3.60
2023-08-15T08:52:28.379Z,3.50
2023-08-15T08:54:57.563Z,3.30
2023-08-15T08:57:28.707Z,3.70
2023-08-15T08:59:57.959Z,5.20
2023-08-15T09:02:25.508Z,4.00
2023-08-15T09:04:55.059Z,3.70
2023-08-15T09:07:22.772Z,3.90
2023-08-15T09:09:50.297Z,3.50
2023-08-15T09:12:50.099Z,3.80
2023-08-15T09:15:18.031Z,3.80
2023-08-15T09:17:45.553Z,3.50
2023-08-15T09:20:19.683Z,3.90
2023-08-15T09:22:48.046Z,3.30
2023-08-15T09:25:16.932Z,3.20
2023-08-15T09:27:44.589Z,3.70
2023-08-15T09:30:15.922Z,4.70
2023-08-15T09:32:44.011Z,3.90
2023-08-15T09:35:19.187Z,3.90
2023-08-15T09:37:48.052Z,3.80
2023-08-15T09:40:25.443Z,3.80
2023-08-15T09:42:53.345Z,4.40
2023-08-15T09:45:20.902Z,3.70
2023-08-15T09:47:48.597Z,3.40
2023-08-15T09:50:17.462Z,3.40
2023-08-15T09:52:52.247Z,3.50
2023-08-15T09:55:20.760Z,3.10
2023-08-15T09:57:48.258Z,3.80
2023-08-15T10:00:18.986Z,3.80
2023-08-15T10:03:18.611Z,3.50
2023-08-15T10:05:54.414Z,3.60
2023-08-15T10:08:21.960Z,3.80
2023-08-15T10:10:52.649Z,4.90
2023-08-15T10:13:21.174Z,4.00
2023-08-15T10:15:49.131Z,5.40
2023-08-15T10:18:16.581Z,5.70
2023-08-15T10:20:43.992Z,5.50
2023-08-15T10:23:11.997Z,9.20
2023-08-15T10:25:40.181Z,5.50
2023-08-15T10:28:11.770Z,6.10
2023-08-15T10:30:44.944Z,4.50
2023-08-15T10:33:20.808Z,3.50
2023-08-15T10:35:58.528Z,4.80
2023-08-15T10:38:29.628Z,3.70
2023-08-15T10:43:30.309Z,3.80
2023-08-15T10:45:59.811Z,3.70
2023-08-15T10:48:55.499Z,6.40
2023-08-15T10:51:31.304Z,4.20
2023-08-15T10:54:03.569Z,4.80
2023-08-15T10:56:36.143Z,4.00
2023-08-15T10:59:06.599Z,3.90
2023-08-15T11:01:35.149Z,3.20
2023-08-15T11:04:02.645Z,3.90
2023-08-15T11:06:31.736Z,3.30
2023-08-15T11:08:59.638Z,4.40
2023-08-15T11:11:27.014Z,3.60
2023-08-15T11:13:55.268Z,3.10
2023-08-15T11:16:23.858Z,4.40
2023-08-15T11:18:51.492Z,3.90
2023-08-15T11:21:19.206Z,4.00
2023-08-15T11:23:50.461Z,4.50
2023-08-15T11:26:19.646Z,3.60
2023-08-15T11:28:47.117Z,5.00
2023-08-15T11:31:26.750Z,3.60
2023-08-15T11:34:01.650Z,4.00
2023-08-15T11:36:29.505Z,3.70
2023-08-15T11:39:00.681Z,4.90
2023-08-15T11:41:28.447Z,5.50
2023-08-15T11:43:55.984Z,4.50
2023-08-15T11:46:33.525Z,3.90
2023-08-15T11:49:07.910Z,4.80
2023-08-15T11:51:37.927Z,4.20
2023-08-15T11:54:06.308Z,5.40
2023-08-15T11:56:53.125Z,4.00
2023-08-15T11:59:21.250Z,5.50
2023-08-15T12:01:49.364Z,3.60
2023-08-15T12:04:17.238Z,3.90
2023-08-15T12:06:44.955Z,6.30
2023-08-15T12:09:12.955Z,4.20
2023-08-15T12:11:40.256Z,5.10
2023-08-15T12:14:07.631Z,3.20
2023-08-15T12:16:35.751Z,3.40
2023-08-15T12:19:03.454Z,3.90
2023-08-15T12:21:30.810Z,3.30
2023-08-15T12:23:59.831Z,4.90
2023-08-15T12:26:27.167Z,4.20
2023-08-15T12:28:54.424Z,4.80
2023-08-15T12:31:21.857Z,5.00
2023-08-15T12:33:49.451Z,3.50
2023-08-15T12:36:16.969Z,3.70
2023-08-15T12:38:44.590Z,4.00
2023-08-15T12:41:14.596Z,3.80
2023-08-15T12:43:42.770Z,4.40
2023-08-15T12:46:10.118Z,4.70
2023-08-15T12:48:37.701Z,4.00
2023-08-15T12:51:05.027Z,4.40
2023-08-15T12:53:32.350Z,4.20
2023-08-15T12:55:59.656Z,3.70
2023-08-15T12:58:27.002Z,4.50
2023-08-15T13:00:54.402Z,3.80
2023-08-15T13:03:21.885Z,3.90
2023-08-15T13:05:50.600Z,3.60
2023-08-15T13:08:20.180Z,3.80
2023-08-15T13:10:47.614Z,3.40
2023-08-15T13:13:14.860Z,3.90
2023-08-15T13:15:43.162Z,13.00
2023-08-15T13:18:10.950Z,4.80
2023-08-15T13:20:39.868Z,3.60
2023-08-15T13:23:07.195Z,4.10
2023-08-15T13:25:34.647Z,3.50
2023-08-15T13:28:02.100Z,3.70
2023-08-15T13:30:29.364Z,4.20
2023-08-15T13:32:56.688Z,5.20
2023-08-15T13:35:26.488Z,5.70
2023-08-15T13:37:53.764Z,4.10
2023-08-15T13:40:21.118Z,4.10
2023-08-15T13:42:48.733Z,3.90
2023-08-15T13:45:18.436Z,3.60
2023-08-15T13:47:45.741Z,4.30
2023-08-15T13:50:14.444Z,5.00
2023-08-15T13:52:42.006Z,5.40
2023-08-15T13:55:10.003Z,4.90
2023-08-15T13:57:37.274Z,6.40
2023-08-15T14:00:04.986Z,5.70
2023-08-15T14:02:38.767Z,5.10
2023-08-15T14:05:06.545Z,4.40
2023-08-15T14:07:34.036Z,4.50
2023-08-15T14:10:01.598Z,4.10
2023-08-15T14:12:29.088Z,6.30
2023-08-15T14:14:57.079Z,7.70
2023-08-15T14:17:24.960Z,4.20
2023-08-15T14:19:52.382Z,6.80
2023-08-15T14:22:19.848Z,4.10
2023-08-15T14:24:49.935Z,5.70
2023-08-15T14:27:19.736Z,4.10
2023-08-15T14:29:51.680Z,3.20
2023-08-15T14:32:19.202Z,4.00
2023-08-15T14:34:48.290Z,3.00
2023-08-15T14:37:15.567Z,3.70
2023-08-15T14:39:43.459Z,4.50
2023-08-15T14:42:10.819Z,5.20
2023-08-15T14:44:38.280Z,5.20
2023-08-15T14:47:06.022Z,3.90
2023-08-15T14:49:33.326Z,3.40
2023-08-15T14:52:02.166Z,3.70
2023-08-15T14:54:29.600Z,3.60
2023-08-15T14:56:56.955Z,3.50
2023-08-15T14:59:24.313Z,4.20
2023-08-15T15:01:52.684Z,3.90
2023-08-15T15:04:20.042Z,4.30
2023-08-15T15:06:47.392Z,3.20
2023-08-15T15:09:14.978Z,3.40
2023-08-15T15:11:42.259Z,3.70
2023-08-15T15:14:09.649Z,3.80
2023-08-15T15:16:37.579Z,5.80
2023-08-15T15:19:05.185Z,3.70
2023-08-15T15:21:33.083Z,3.20
2023-08-15T15:24:00.386Z,4.20
2023-08-15T15:26:27.682Z,3.60
2023-08-15T15:28:55.789Z,3.90
2023-08-15T15:31:23.164Z,3.90
2023-08-15T15:33:50.614Z,5.80
2023-08-15T15:36:17.931Z,6.50
2023-08-15T15:38:45.381Z,5.60
2023-08-15T15:41:12.793Z,6.40
2023-08-15T15:43:40.078Z,6.70
2023-08-15T15:46:07.443Z,7.00
2023-08-15T15:48:34.907Z,6.90
2023-08-15T15:51:02.998Z,19.40
2023-08-15T15:53:30.277Z,13.20
2023-08-15T15:55:57.656Z,9.60
2023-08-15T15:58:25.088Z,5.00
2023-08-15T16:00:55.913Z,4.50
2023-08-15T16:05:51.462Z,8.90
2023-08-15T16:08:18.966Z,7.40
2023-08-15T16:10:46.259Z,5.40
2023-08-15T16:13:13.557Z,6.00
2023-08-15T16:15:41.367Z,6.90
2023-08-15T16:18:09.356Z,5.60
2023-08-15T16:20:36.642Z,6.80
2023-08-15T16:23:04.319Z,5.30
2023-08-15T16:25:31.797Z,6.20
2023-08-15T16:28:00.774Z,7.70
2023-08-15T16:30:28.191Z,6.30
2023-08-15T16:32:55.572Z,7.10
2023-08-15T16:35:22.987Z,6.70
2023-08-15T16:37:50.298Z,6.50
2023-08-15T16:40:17.575Z,6.60
2023-08-15T16:42:44.942Z,8.20
2023-08-15T16:45:12.371Z,12.60
2023-08-15T16:47:39.659Z,9.10
2023-08-15T16:50:07.510Z,7.90
2023-08-15T16:52:34.845Z,8.20
2023-08-15T16:55:02.126Z,7.20
2023-08-15T16:57:29.426Z,7.50
2023-08-15T16:59:56.723Z,8.80
2023-08-15T17:02:24.277Z,8.40
2023-08-15T17:04:51.878Z,8.90
2023-08-15T17:07:19.126Z,10.70
2023-08-15T17:09:46.588Z,9.50
2023-08-15T17:12:13.967Z,8.40
2023-08-15T17:14:41.628Z,8.50
2023-08-15T17:17:09.301Z,10.30
2023-08-15T17:19:36.690Z,13.20
2023-08-15T17:22:03.997Z,11.00
2023-08-15T17:24:31.323Z,10.30
2023-08-15T17:26:58.638Z,12.60
2023-08-15T17:29:25.922Z,12.40
2023-08-15T17:31:53.241Z,13.20
2023-08-15T17:34:20.815Z,13.40
2023-08-15T17:36:48.086Z,14.90
2023-08-15T17:39:15.463Z,12.70
2023-08-15T17:41:45.652Z,11.20
2023-08-15T17:44:13.383Z,10.30
2023-08-15T17:46:40.690Z,11.00
2023-08-15T17:49:08.007Z,11.00
2023-08-15T17:51:36.795Z,11.50
2023-08-15T17:54:04.374Z,12.20
2023-08-15T17:56:31.695Z,13.00
2023-08-15T17:58:58.966Z,11.50
2023-08-15T18:01:27.675Z,13.00
2023-08-15T18:03:56.221Z,14.80
2023-08-15T18:06:23.719Z,13.90
2023-08-15T18:08:51.080Z,14.00
2023-08-15T18:11:18.365Z,13.20
2023-08-15T18:13:45.650Z,11.00
2023-08-15T18:16:13.638Z,10.80
2023-08-15T18:18:41.227Z,10.20
2023-08-15T18:21:08.508Z,10.20
2023-08-15T18:23:36.831Z,9.90
2023-08-15T18:26:04.309Z,10.20
2023-08-15T18:28:31.603Z,10.70
2023-08-15T18:30:58.904Z,11.80
2023-08-15T18:33:26.251Z,9.90
2023-08-15T18:35:54.068Z,10.20
2023-08-15T18:38:22.626Z,10.00
2023-08-15T18:40:50.323Z,9.60
2023-08-15T18:43:17.613Z,10.30
2023-08-15T18:45:45.646Z,10.30
2023-08-15T18:48:13.563Z,11.40
2023-08-15T18:50:42.664Z,11.30
2023-08-15T18:53:09.981Z,12.10
2023-08-15T18:55:37.506Z,10.80
2023-08-15T18:58:05.384Z,11.30
2023-08-15T19:00:33.487Z,10.90
2023-08-15T19:03:00.857Z,12.10
2023-08-15T19:05:28.281Z,11.50
2023-08-15T19:07:55.555Z,12.60
2023-08-15T19:10:23.026Z,12.10
2023-08-15T19:12:50.353Z,10.80
2023-08-15T19:15:19.223Z,11.00
2023-08-15T19:17:49.686Z,10.90
2023-08-15T19:20:18.178Z,10.70
2023-08-15T19:22:45.452Z,10.90
2023-08-15T19:25:15.915Z,10.70
2023-08-15T19:27:43.878Z,9.90
2023-08-15T19:30:12.717Z,11.40
2023-08-15T19:32:40.453Z,11.90
2023-08-15T19:35:08.221Z,10.60
2023-08-15T19:37:38.375Z,11.70
2023-08-15T19:40:08.232Z,11.20
2023-08-15T19:42:46.330Z,11.80
2023-08-15T19:45:14.202Z,10.60
2023-08-15T19:47:41.758Z,11.60
2023-08-15T19:50:10.267Z,11.80
2023-08-15T19:52:37.801Z,12.70
2023-08-15T19:55:05.489Z,13.30
2023-08-15T19:57:33.188Z,11.00
2023-08-15T20:00:01.355Z,11.20
2023-08-15T20:02:28.667Z,11.80
2023-08-15T20:04:56.224Z,12.00
2023-08-15T20:07:23.705Z,11.10
2023-08-15T20:10:03.959Z,11.50
2023-08-15T20:12:36.156Z,11.90
2023-08-15T20:15:05.845Z,12.80
2023-08-15T20:17:33.424Z,11.70
2023-08-15T20:20:00.935Z,12.20
2023-08-15T20:22:28.318Z,12.20
2023-08-15T20:24:57.685Z,13.00
2023-08-15T20:27:25.107Z,12.70
2023-08-15T20:29:57.396Z,13.00
2023-08-15T20:32:25.733Z,13.20
2023-08-15T20:34:53.742Z,15.50
2023-08-15T20:37:21.082Z,15.80
2023-08-15T20:39:48.375Z,13.10
2023-08-15T20:42:15.719Z,12.30
2023-08-15T20:44:43.009Z,11.30
2023-08-15T20:47:10.405Z,13.00
2023-08-15T20:49:37.830Z,11.50
2023-08-15T20:52:05.466Z,11.20
2023-08-15T20:54:33.269Z,12.20
2023-08-15T20:57:00.704Z,11.30
2023-08-15T20:59:28.085Z,12.00
2023-08-15T21:01:55.336Z,12.10
2023-08-15T21:04:22.741Z,13.00
2023-08-15T21:06:53.224Z,13.10
2023-08-15T21:09:20.557Z,13.40
2023-08-15T21:11:48.113Z,13.30
2023-08-15T21:14:15.698Z,13.80
2023-08-15T21:16:43.729Z,14.30
2023-08-15T21:19:11.502Z,14.80
2023-08-15T21:21:38.914Z,14.70
2023-08-15T21:24:06.799Z,14.50
2023-08-15T21:26:34.261Z,14.80
2023-08-15T21:29:01.803Z,13.30
2023-08-15T21:31:29.293Z,13.60
2023-08-15T21:33:56.606Z,13.70
2023-08-15T21:36:23.947Z,13.50
2023-08-15T21:38:51.400Z,14.20
2023-08-15T21:41:18.670Z,14.70
2023-08-15T21:43:45.972Z,15.70
2023-08-15T21:46:13.493Z,15.30
2023-08-15T21:48:40.794Z,14.50
2023-08-15T21:51:08.077Z,13.60
2023-08-15T21:53:35.495Z,14.60
2023-08-15T21:56:02.834Z,13.20
2023-08-15T21:58:30.121Z,13.00
2023-08-15T22:00:57.435Z,12.90
2023-08-15T22:03:24.857Z,13.50
2023-08-15T22:05:52.278Z,13.30
2023-08-15T22:08:19.583Z,13.20
2023-08-15T22:10:47.705Z,13.80
2023-08-15T22:13:15.148Z,13.20
2023-08-15T22:15:44.266Z,13.40
2023-08-15T22:20:41.986Z,13.50
2023-08-15T22:23:09.436Z,11.90
2023-08-15T22:25:36.829Z,13.30
2023-08-15T22:28:04.970Z,13.10
2023-08-15T22:30:33.504Z,13.00
2023-08-15T22:33:00.844Z,14.50
2023-08-15T22:35:38.052Z,14.90
2023-08-15T22:38:05.447Z,14.30
2023-08-15T22:40:32.724Z,13.40
2023-08-15T22:42:59.998Z,12.90
2023-08-15T22:45:27.269Z,13.90
2023-08-15T22:47:54.756Z,14.00
2023-08-15T22:50:22.034Z,13.40
2023-08-15T22:52:49.380Z,13.30
2023-08-15T22:55:16.734Z,13.50
2023-08-15T22:57:44.092Z,13.00
2023-08-15T23:00:12.029Z,13.90
2023-08-15T23:02:39.378Z,13.30
2023-08-15T23:05:06.969Z,13.60
2023-08-15T23:07:34.325Z,12.60
2023-08-15T23:10:01.840Z,13.10
2023-08-15T23:12:29.119Z,14.00
2023-08-15T23:14:56.396Z,13.40
2023-08-15T23:17:24.435Z,13.20
2023-08-15T23:19:52.025Z,14.20
2023-08-15T23:22:19.365Z,13.80
2023-08-15T23:24:46.682Z,12.90
2023-08-15T23:27:13.989Z,13.30
2023-08-15T23:29:41.404Z,13.60
2023-08-15T23:32:08.768Z,13.70
2023-08-15T23:34:36.172Z,14.30
2023-08-15T23:37:03.603Z,12.80
2023-08-15T23:39:30.866Z,12.80
2023-08-15T23:41:58.137Z,13.50
2023-08-15T23:44:25.362Z,13.70
2023-08-15T23:46:53.508Z,13.30
2023-08-15T23:49:20.919Z,13.10
2023-08-15T23:51:48.966Z,12.90
2023-08-15T23:54:16.275Z,15.10
2023-08-15T23:56:43.682Z,13.40
2023-08-15T23:59:11.207Z,14.60
